sensor_id;sensor_type;location;lat;lon;timestamp;temperature;humidity
48686;DHT22;34485;51.536;3.816;2023-04-25T00:01:04;7.50;99.90
48686;DHT22;34485;51.536;3.816;2023-04-25T00:03:34;7.50;99.90
48686;DHT22;34485;51.536;3.816;2023-04-25T00:06:04;7.40;99.90
48686;DHT22;34485;51.536;3.816;2023-04-25T00:08:30;7.40;99.90
48686;DHT22;34485;51.536;3.816;2023-04-25T00:11:00;7.40;99.90
48686;DHT22;34485;51.536;3.816;2023-04-25T00:13:26;7.30;99.90
48686;DHT22;34485;51.536;3.816;2023-04-25T00:15:55;7.40;99.90
48686;DHT22;34485;51.536;3.816;2023-04-25T00:18:21;7.40;99.90
48686;DHT22;34485;51.536;3.816;2023-04-25T00:20:47;7.50;99.90
48686;DHT22;34485;51.536;3.816;2023-04-25T00:23:16;7.50;99.90
48686;DHT22;34485;51.536;3.816;2023-04-25T00:25:46;7.50;99.90
48686;DHT22;34485;51.536;3.816;2023-04-25T00:28:12;7.60;99.90
48686;DHT22;34485;51.536;3.816;2023-04-25T00:30:39;7.60;99.90
48686;DHT22;34485;51.536;3.816;2023-04-25T00:33:05;7.60;99.90
48686;DHT22;34485;51.536;3.816;2023-04-25T00:35:31;7.60;99.90
48686;DHT22;34485;51.536;3.816;2023-04-25T00:37:56;7.70;99.90
48686;DHT22;34485;51.536;3.816;2023-04-25T00:40:22;7.70;99.90
48686;DHT22;34485;51.536;3.816;2023-04-25T00:42:47;7.70;99.90
48686;DHT22;34485;51.536;3.816;2023-04-25T00:45:14;7.60;99.90
48686;DHT22;34485;51.536;3.816;2023-04-25T00:47:41;7.60;99.90
48686;DHT22;34485;51.536;3.816;2023-04-25T00:50:07;7.50;99.90
48686;DHT22;34485;51.536;3.816;2023-04-25T00:52:34;7.50;99.90
48686;DHT22;34485;51.536;3.816;2023-04-25T00:55:00;7.40;99.90
48686;DHT22;34485;51.536;3.816;2023-04-25T00:57:26;7.40;99.90
48686;DHT22;34485;51.536;3.816;2023-04-25T00:59:53;7.30;99.90
48686;DHT22;34485;51.536;3.816;2023-04-25T01:02:20;7.40;99.90
48686;DHT22;34485;51.536;3.816;2023-04-25T01:04:46;7.30;99.90
48686;DHT22;34485;51.536;3.816;2023-04-25T01:07:13;7.30;99.90
48686;DHT22;34485;51.536;3.816;2023-04-25T01:09:41;7.30;99.90
48686;DHT22;34485;51.536;3.816;2023-04-25T01:12:07;7.30;99.90
48686;DHT22;34485;51.536;3.816;2023-04-25T01:14:33;7.30;99.90
48686;DHT22;34485;51.536;3.816;2023-04-25T01:16:58;7.30;99.90
48686;DHT22;34485;51.536;3.816;2023-04-25T01:19:24;7.30;99.90
48686;DHT22;34485;51.536;3.816;2023-04-25T01:21:50;7.20;99.90
48686;DHT22;34485;51.536;3.816;2023-04-25T01:24:16;7.20;99.90
48686;DHT22;34485;51.536;3.816;2023-04-25T01:26:42;7.20;99.90
48686;DHT22;34485;51.536;3.816;2023-04-25T01:29:16;7.20;99.90
48686;DHT22;34485;51.536;3.816;2023-04-25T01:31:43;7.20;99.90
48686;DHT22;34485;51.536;3.816;2023-04-25T01:34:09;7.30;99.90
48686;DHT22;34485;51.536;3.816;2023-04-25T01:36:35;7.30;99.90
48686;DHT22;34485;51.536;3.816;2023-04-25T01:39:01;7.20;99.90
48686;DHT22;34485;51.536;3.816;2023-04-25T01:41:27;7.20;99.90
48686;DHT22;34485;51.536;3.816;2023-04-25T01:43:53;7.30;99.90
48686;DHT22;34485;51.536;3.816;2023-04-25T01:46:18;7.20;99.90
48686;DHT22;34485;51.536;3.816;2023-04-25T01:48:44;7.30;99.90
48686;DHT22;34485;51.536;3.816;2023-04-25T01:51:10;7.30;99.90
48686;DHT22;34485;51.536;3.816;2023-04-25T01:53:37;7.30;99.90
48686;DHT22;34485;51.536;3.816;2023-04-25T01:56:03;7.30;99.90
48686;DHT22;34485;51.536;3.816;2023-04-25T01:58:29;7.40;99.90
48686;DHT22;34485;51.536;3.816;2023-04-25T02:00:54;7.40;99.90
48686;DHT22;34485;51.536;3.816;2023-04-25T02:03:20;7.40;99.90
48686;DHT22;34485;51.536;3.816;2023-04-25T02:05:46;7.40;99.90
48686;DHT22;34485;51.536;3.816;2023-04-25T02:08:11;7.40;99.90
48686;DHT22;34485;51.536;3.816;2023-04-25T02:10:37;7.40;99.90
48686;DHT22;34485;51.536;3.816;2023-04-25T02:13:03;7.30;99.90
48686;DHT22;34485;51.536;3.816;2023-04-25T02:15:30;7.20;99.90
48686;DHT22;34485;51.536;3.816;2023-04-25T02:17:56;7.00;99.90
48686;DHT22;34485;51.536;3.816;2023-04-25T02:20:23;6.90;99.90
48686;DHT22;34485;51.536;3.816;2023-04-25T02:22:50;6.70;99.90
48686;DHT22;34485;51.536;3.816;2023-04-25T02:25:16;6.60;99.90
48686;DHT22;34485;51.536;3.816;2023-04-25T02:27:42;6.50;99.90
48686;DHT22;34485;51.536;3.816;2023-04-25T02:30:08;6.50;99.90
48686;DHT22;34485;51.536;3.816;2023-04-25T02:32:34;6.50;99.90
48686;DHT22;34485;51.536;3.816;2023-04-25T02:35:01;6.50;99.90
48686;DHT22;34485;51.536;3.816;2023-04-25T02:37:30;6.50;99.90
48686;DHT22;34485;51.536;3.816;2023-04-25T02:39:55;6.50;99.90
48686;DHT22;34485;51.536;3.816;2023-04-25T02:42:21;6.50;99.90
48686;DHT22;34485;51.536;3.816;2023-04-25T02:44:47;6.50;99.90
48686;DHT22;34485;51.536;3.816;2023-04-25T02:47:12;6.50;99.90
48686;DHT22;34485;51.536;3.816;2023-04-25T02:49:38;6.50;99.90
48686;DHT22;34485;51.536;3.816;2023-04-25T02:52:03;6.50;99.90
48686;DHT22;34485;51.536;3.816;2023-04-25T02:54:30;6.40;99.90
48686;DHT22;34485;51.536;3.816;2023-04-25T02:56:55;6.50;99.90
48686;DHT22;34485;51.536;3.816;2023-04-25T02:59:21;6.50;99.90
48686;DHT22;34485;51.536;3.816;2023-04-25T03:01:46;6.50;99.90
48686;DHT22;34485;51.536;3.816;2023-04-25T03:04:12;6.50;99.90
48686;DHT22;34485;51.536;3.816;2023-04-25T03:06:38;6.50;99.90
48686;DHT22;34485;51.536;3.816;2023-04-25T03:09:03;6.50;99.90
48686;DHT22;34485;51.536;3.816;2023-04-25T03:11:29;6.50;99.90
48686;DHT22;34485;51.536;3.816;2023-04-25T03:13:55;6.50;99.90
48686;DHT22;34485;51.536;3.816;2023-04-25T03:16:21;6.50;99.90
48686;DHT22;34485;51.536;3.816;2023-04-25T03:18:47;6.50;99.90
48686;DHT22;34485;51.536;3.816;2023-04-25T03:21:13;6.50;99.90
48686;DHT22;34485;51.536;3.816;2023-04-25T03:23:38;6.60;99.90
48686;DHT22;34485;51.536;3.816;2023-04-25T03:26:04;6.60;99.90
48686;DHT22;34485;51.536;3.816;2023-04-25T03:28:29;6.70;99.90
48686;DHT22;34485;51.536;3.816;2023-04-25T03:30:55;6.70;99.90
48686;DHT22;34485;51.536;3.816;2023-04-25T03:33:21;6.80;99.90
48686;DHT22;34485;51.536;3.816;2023-04-25T03:35:47;6.90;99.90
48686;DHT22;34485;51.536;3.816;2023-04-25T03:38:12;6.90;99.90
48686;DHT22;34485;51.536;3.816;2023-04-25T03:40:38;6.90;99.90
48686;DHT22;34485;51.536;3.816;2023-04-25T03:43:03;6.90;99.90
48686;DHT22;34485;51.536;3.816;2023-04-25T03:45:29;6.80;99.90
48686;DHT22;34485;51.536;3.816;2023-04-25T03:47:55;6.80;99.90
48686;DHT22;34485;51.536;3.816;2023-04-25T03:50:20;6.70;99.90
48686;DHT22;34485;51.536;3.816;2023-04-25T03:52:46;6.60;99.90
48686;DHT22;34485;51.536;3.816;2023-04-25T03:55:12;6.50;99.90
48686;DHT22;34485;51.536;3.816;2023-04-25T03:57:37;6.50;99.90
48686;DHT22;34485;51.536;3.816;2023-04-25T04:00:03;6.40;99.90
48686;DHT22;34485;51.536;3.816;2023-04-25T04:02:29;6.30;99.90
48686;DHT22;34485;51.536;3.816;2023-04-25T04:04:55;6.30;99.90
48686;DHT22;34485;51.536;3.816;2023-04-25T04:07:22;6.20;99.90
48686;DHT22;34485;51.536;3.816;2023-04-25T04:09:47;6.20;99.90
48686;DHT22;34485;51.536;3.816;2023-04-25T04:12:13;6.20;99.90
48686;DHT22;34485;51.536;3.816;2023-04-25T04:14:38;6.20;99.90
48686;DHT22;34485;51.536;3.816;2023-04-25T04:17:04;6.10;99.90
48686;DHT22;34485;51.536;3.816;2023-04-25T04:19:31;6.10;99.90
48686;DHT22;34485;51.536;3.816;2023-04-25T04:21:56;6.10;99.90
48686;DHT22;34485;51.536;3.816;2023-04-25T04:24:23;6.10;99.90
48686;DHT22;34485;51.536;3.816;2023-04-25T04:26:49;6.10;99.90
48686;DHT22;34485;51.536;3.816;2023-04-25T04:29:16;6.00;99.90
48686;DHT22;34485;51.536;3.816;2023-04-25T04:31:50;6.10;99.90
48686;DHT22;34485;51.536;3.816;2023-04-25T04:34:18;6.10;99.90
48686;DHT22;34485;51.536;3.816;2023-04-25T04:36:44;6.10;99.90
48686;DHT22;34485;51.536;3.816;2023-04-25T04:39:13;6.10;99.90
48686;DHT22;34485;51.536;3.816;2023-04-25T04:41:39;6.20;99.90
48686;DHT22;34485;51.536;3.816;2023-04-25T04:44:05;6.20;99.90
48686;DHT22;34485;51.536;3.816;2023-04-25T04:46:32;6.40;99.90
48686;DHT22;34485;51.536;3.816;2023-04-25T04:49:06;6.50;99.90
48686;DHT22;34485;51.536;3.816;2023-04-25T04:51:32;6.60;99.90
48686;DHT22;34485;51.536;3.816;2023-04-25T04:53:58;6.70;99.90
48686;DHT22;34485;51.536;3.816;2023-04-25T04:56:30;6.70;99.90
48686;DHT22;34485;51.536;3.816;2023-04-25T04:58:59;6.70;99.90
48686;DHT22;34485;51.536;3.816;2023-04-25T05:01:25;6.70;99.90
48686;DHT22;34485;51.536;3.816;2023-04-25T05:03:51;6.60;99.90
48686;DHT22;34485;51.536;3.816;2023-04-25T05:13:57;6.50;99.90
48686;DHT22;34485;51.536;3.816;2023-04-25T05:16:22;6.60;99.90
48686;DHT22;34485;51.536;3.816;2023-04-25T05:18:48;6.60;99.90
48686;DHT22;34485;51.536;3.816;2023-04-25T05:21:14;6.70;99.90
48686;DHT22;34485;51.536;3.816;2023-04-25T05:23:40;6.70;99.90
48686;DHT22;34485;51.536;3.816;2023-04-25T05:26:05;6.80;99.90
48686;DHT22;34485;51.536;3.816;2023-04-25T05:28:31;6.80;99.90
48686;DHT22;34485;51.536;3.816;2023-04-25T05:30:57;6.90;99.90
48686;DHT22;34485;51.536;3.816;2023-04-25T05:33:22;7.00;99.90
48686;DHT22;34485;51.536;3.816;2023-04-25T05:35:48;7.00;99.90
48686;DHT22;34485;51.536;3.816;2023-04-25T05:38:14;7.10;99.90
48686;DHT22;34485;51.536;3.816;2023-04-25T05:40:40;7.20;99.90
48686;DHT22;34485;51.536;3.816;2023-04-25T05:45:32;7.30;99.90
48686;DHT22;34485;51.536;3.816;2023-04-25T05:47:58;7.40;99.90
48686;DHT22;34485;51.536;3.816;2023-04-25T05:50:23;7.40;99.90
48686;DHT22;34485;51.536;3.816;2023-04-25T05:52:50;7.40;99.90
48686;DHT22;34485;51.536;3.816;2023-04-25T05:55:15;7.50;99.90
48686;DHT22;34485;51.536;3.816;2023-04-25T05:57:41;7.50;99.90
48686;DHT22;34485;51.536;3.816;2023-04-25T06:00:08;7.50;99.30
48686;DHT22;34485;51.536;3.816;2023-04-25T06:02:35;7.50;99.30
48686;DHT22;34485;51.536;3.816;2023-04-25T06:05:00;7.50;98.80
48686;DHT22;34485;51.536;3.816;2023-04-25T06:07:28;7.60;99.30
48686;DHT22;34485;51.536;3.816;2023-04-25T06:09:55;7.60;98.50
48686;DHT22;34485;51.536;3.816;2023-04-25T06:12:20;7.60;97.70
48686;DHT22;34485;51.536;3.816;2023-04-25T06:14:46;7.60;97.70
48686;DHT22;34485;51.536;3.816;2023-04-25T06:17:12;7.70;98.80
48686;DHT22;34485;51.536;3.816;2023-04-25T06:19:37;7.60;99.10
48686;DHT22;34485;51.536;3.816;2023-04-25T06:26:55;8.00;99.90
48686;DHT22;34485;51.536;3.816;2023-04-25T06:29:21;8.00;99.90
48686;DHT22;34485;51.536;3.816;2023-04-25T06:31:47;8.00;99.90
48686;DHT22;34485;51.536;3.816;2023-04-25T06:34:12;8.00;99.90
48686;DHT22;34485;51.536;3.816;2023-04-25T06:36:38;7.90;99.90
48686;DHT22;34485;51.536;3.816;2023-04-25T06:39:04;7.60;99.90
48686;DHT22;34485;51.536;3.816;2023-04-25T06:41:29;7.40;99.40
48686;DHT22;34485;51.536;3.816;2023-04-25T06:43:55;7.40;99.90
48686;DHT22;34485;51.536;3.816;2023-04-25T06:46:21;7.40;99.90
48686;DHT22;34485;51.536;3.816;2023-04-25T06:51:12;7.90;99.90
48686;DHT22;34485;51.536;3.816;2023-04-25T06:53:39;8.00;99.90
48686;DHT22;34485;51.536;3.816;2023-04-25T06:56:05;8.20;99.90
48686;DHT22;34485;51.536;3.816;2023-04-25T06:58:30;8.40;99.90
48686;DHT22;34485;51.536;3.816;2023-04-25T07:00:56;8.60;99.90
48686;DHT22;34485;51.536;3.816;2023-04-25T07:03:22;8.90;99.90
48686;DHT22;34485;51.536;3.816;2023-04-25T07:05:47;9.10;99.90
48686;DHT22;34485;51.536;3.816;2023-04-25T07:08:13;9.30;97.80
48686;DHT22;34485;51.536;3.816;2023-04-25T07:10:38;9.60;96.50
48686;DHT22;34485;51.536;3.816;2023-04-25T07:13:04;9.80;99.50
48686;DHT22;34485;51.536;3.816;2023-04-25T07:15:30;10.10;96.30
48686;DHT22;34485;51.536;3.816;2023-04-25T07:17:55;10.30;97.20
48686;DHT22;34485;51.536;3.816;2023-04-25T07:20:21;10.30;95.10
48686;DHT22;34485;51.536;3.816;2023-04-25T07:39:50;10.00;99.90
48686;DHT22;34485;51.536;3.816;2023-04-25T07:42:15;10.10;91.80
48686;DHT22;34485;51.536;3.816;2023-04-25T07:44:41;10.30;94.30
48686;DHT22;34485;51.536;3.816;2023-04-25T07:47:08;10.80;92.20
48686;DHT22;34485;51.536;3.816;2023-04-25T07:49:35;11.30;91.50
48686;DHT22;34485;51.536;3.816;2023-04-25T07:52:01;12.40;87.10
48686;DHT22;34485;51.536;3.816;2023-04-25T07:56:54;12.60;82.80
48686;DHT22;34485;51.536;3.816;2023-04-25T07:59:19;12.50;84.50
48686;DHT22;34485;51.536;3.816;2023-04-25T08:01:45;12.00;87.40
48686;DHT22;34485;51.536;3.816;2023-04-25T08:04:11;12.00;88.40
48686;DHT22;34485;51.536;3.816;2023-04-25T08:09:02;10.80;91.90
48686;DHT22;34485;51.536;3.816;2023-04-25T08:11:29;10.70;92.40
48686;DHT22;34485;51.536;3.816;2023-04-25T08:13:55;9.90;95.80
48686;DHT22;34485;51.536;3.816;2023-04-25T08:16:21;9.20;99.30
48686;DHT22;34485;51.536;3.816;2023-04-25T08:18:47;8.50;99.90
48686;DHT22;34485;51.536;3.816;2023-04-25T08:21:12;8.10;99.90
48686;DHT22;34485;51.536;3.816;2023-04-25T08:23:38;8.00;99.90
48686;DHT22;34485;51.536;3.816;2023-04-25T08:26:04;7.80;99.90
48686;DHT22;34485;51.536;3.816;2023-04-25T08:28:31;7.80;99.90
48686;DHT22;34485;51.536;3.816;2023-04-25T08:30:57;8.20;99.90
48686;DHT22;34485;51.536;3.816;2023-04-25T08:33:22;9.20;99.90
48686;DHT22;34485;51.536;3.816;2023-04-25T08:35:48;9.60;99.90
48686;DHT22;34485;51.536;3.816;2023-04-25T08:38:14;10.30;96.90
48686;DHT22;34485;51.536;3.816;2023-04-25T08:40:40;11.20;97.20
48686;DHT22;34485;51.536;3.816;2023-04-25T08:43:07;11.90;95.00
48686;DHT22;34485;51.536;3.816;2023-04-25T08:45:39;12.70;87.60
48686;DHT22;34485;51.536;3.816;2023-04-25T08:48:10;12.90;87.50
48686;DHT22;34485;51.536;3.816;2023-04-25T08:50:38;13.60;90.60
48686;DHT22;34485;51.536;3.816;2023-04-25T08:53:08;14.30;81.00
48686;DHT22;34485;51.536;3.816;2023-04-25T08:55:37;14.90;79.20
48686;DHT22;34485;51.536;3.816;2023-04-25T08:58:06;15.10;76.90
48686;DHT22;34485;51.536;3.816;2023-04-25T09:00:32;15.20;77.70
48686;DHT22;34485;51.536;3.816;2023-04-25T09:02:58;15.30;73.30
48686;DHT22;34485;51.536;3.816;2023-04-25T09:05:24;15.20;76.50
48686;DHT22;34485;51.536;3.816;2023-04-25T09:07:50;15.80;69.70
48686;DHT22;34485;51.536;3.816;2023-04-25T09:10:16;15.90;69.70
48686;DHT22;34485;51.536;3.816;2023-04-25T09:12:42;16.00;69.80
48686;DHT22;34485;51.536;3.816;2023-04-25T09:15:09;16.10;71.00
48686;DHT22;34485;51.536;3.816;2023-04-25T09:17:35;16.60;70.70
48686;DHT22;34485;51.536;3.816;2023-04-25T09:20:09;16.90;62.90
48686;DHT22;34485;51.536;3.816;2023-04-25T09:22:36;17.20;60.20
48686;DHT22;34485;51.536;3.816;2023-04-25T09:25:10;17.60;62.10
48686;DHT22;34485;51.536;3.816;2023-04-25T09:27:36;18.00;60.40
48686;DHT22;34485;51.536;3.816;2023-04-25T09:30:15;17.30;58.00
48686;DHT22;34485;51.536;3.816;2023-04-25T09:32:44;17.30;61.00
48686;DHT22;34485;51.536;3.816;2023-04-25T09:35:10;17.90;60.20
48686;DHT22;34485;51.536;3.816;2023-04-25T09:37:48;17.90;57.20
48686;DHT22;34485;51.536;3.816;2023-04-25T09:40:13;18.10;58.50
48686;DHT22;34485;51.536;3.816;2023-04-25T09:42:41;18.10;59.30
48686;DHT22;34485;51.536;3.816;2023-04-25T09:45:07;18.10;57.90
48686;DHT22;34485;51.536;3.816;2023-04-25T09:47:37;17.80;61.70
48686;DHT22;34485;51.536;3.816;2023-04-25T09:50:16;18.10;55.20
48686;DHT22;34485;51.536;3.816;2023-04-25T09:52:44;18.40;57.20
48686;DHT22;34485;51.536;3.816;2023-04-25T09:55:10;17.90;60.50
48686;DHT22;34485;51.536;3.816;2023-04-25T09:57:35;17.10;91.90
48686;DHT22;34485;51.536;3.816;2023-04-25T10:00:05;16.70;63.40
48686;DHT22;34485;51.536;3.816;2023-04-25T10:02:35;16.00;59.80
48686;DHT22;34485;51.536;3.816;2023-04-25T10:05:05;15.10;64.60
48686;DHT22;34485;51.536;3.816;2023-04-25T10:07:31;14.60;66.00
48686;DHT22;34485;51.536;3.816;2023-04-25T10:10:02;14.00;64.30
48686;DHT22;34485;51.536;3.816;2023-04-25T10:12:29;13.80;69.70
48686;DHT22;34485;51.536;3.816;2023-04-25T10:14:57;14.00;70.10
48686;DHT22;34485;51.536;3.816;2023-04-25T10:17:23;14.20;68.80
48686;DHT22;34485;51.536;3.816;2023-04-25T10:19:50;14.80;69.10
48686;DHT22;34485;51.536;3.816;2023-04-25T10:22:35;15.40;67.10
48686;DHT22;34485;51.536;3.816;2023-04-25T10:25:02;15.80;60.50
48686;DHT22;34485;51.536;3.816;2023-04-25T10:27:30;16.20;58.90
48686;DHT22;34485;51.536;3.816;2023-04-25T10:30:15;16.80;59.60
48686;DHT22;34485;51.536;3.816;2023-04-25T10:32:44;17.60;57.00
48686;DHT22;34485;51.536;3.816;2023-04-25T10:40:26;18.30;52.90
48686;DHT22;34485;51.536;3.816;2023-04-25T10:42:52;18.10;55.20
48686;DHT22;34485;51.536;3.816;2023-04-25T10:50:14;17.30;62.00
48686;DHT22;34485;51.536;3.816;2023-04-25T10:52:42;17.50;62.60
48686;DHT22;34485;51.536;3.816;2023-04-25T10:55:08;17.50;59.20
48686;DHT22;34485;51.536;3.816;2023-04-25T10:57:41;16.90;61.30
48686;DHT22;34485;51.536;3.816;2023-04-25T11:02:41;15.70;62.40
48686;DHT22;34485;51.536;3.816;2023-04-25T11:05:09;15.10;61.90
48686;DHT22;34485;51.536;3.816;2023-04-25T11:10:16;14.60;68.40
48686;DHT22;34485;51.536;3.816;2023-04-25T11:15:09;16.00;67.30
48686;DHT22;34485;51.536;3.816;2023-04-25T11:17:34;15.60;66.50
48686;DHT22;34485;51.536;3.816;2023-04-25T11:20:01;16.20;67.60
48686;DHT22;34485;51.536;3.816;2023-04-25T11:22:27;16.50;58.70
48686;DHT22;34485;51.536;3.816;2023-04-25T11:24:53;16.40;61.10
48686;DHT22;34485;51.536;3.816;2023-04-25T11:27:20;16.70;58.80
48686;DHT22;34485;51.536;3.816;2023-04-25T11:29:46;17.10;64.20
48686;DHT22;34485;51.536;3.816;2023-04-25T11:32:15;17.30;63.10
48686;DHT22;34485;51.536;3.816;2023-04-25T11:34:43;17.20;60.60
48686;DHT22;34485;51.536;3.816;2023-04-25T11:37:09;17.10;61.40
48686;DHT22;34485;51.536;3.816;2023-04-25T11:39:37;16.60;68.50
48686;DHT22;34485;51.536;3.816;2023-04-25T11:42:04;16.40;61.60
48686;DHT22;34485;51.536;3.816;2023-04-25T11:44:31;15.80;84.40
48686;DHT22;34485;51.536;3.816;2023-04-25T11:49:23;13.90;99.90
48686;DHT22;34485;51.536;3.816;2023-04-25T11:51:50;13.70;99.90
48686;DHT22;34485;51.536;3.816;2023-04-25T11:54:16;13.50;69.80
48686;DHT22;34485;51.536;3.816;2023-04-25T11:56:42;13.10;75.40
48686;DHT22;34485;51.536;3.816;2023-04-25T11:59:08;13.30;78.30
48686;DHT22;34485;51.536;3.816;2023-04-25T12:01:36;13.50;78.50
48686;DHT22;34485;51.536;3.816;2023-04-25T12:04:22;14.00;73.90
48686;DHT22;34485;51.536;3.816;2023-04-25T12:06:50;13.70;73.60
48686;DHT22;34485;51.536;3.816;2023-04-25T12:09:21;13.50;75.20
48686;DHT22;34485;51.536;3.816;2023-04-25T12:11:48;13.60;81.80
48686;DHT22;34485;51.536;3.816;2023-04-25T12:14:26;13.90;76.30
48686;DHT22;34485;51.536;3.816;2023-04-25T12:16:54;14.10;81.40
48686;DHT22;34485;51.536;3.816;2023-04-25T12:19:21;14.00;73.00
48686;DHT22;34485;51.536;3.816;2023-04-25T12:21:48;13.80;66.30
48686;DHT22;34485;51.536;3.816;2023-04-25T12:24:25;13.70;76.70
48686;DHT22;34485;51.536;3.816;2023-04-25T12:27:03;13.60;67.10
48686;DHT22;34485;51.536;3.816;2023-04-25T12:29:34;13.50;75.80
48686;DHT22;34485;51.536;3.816;2023-04-25T12:32:00;13.40;76.80
48686;DHT22;34485;51.536;3.816;2023-04-25T12:34:27;13.70;76.60
48686;DHT22;34485;51.536;3.816;2023-04-25T12:36:53;13.80;79.40
48686;DHT22;34485;51.536;3.816;2023-04-25T12:39:23;13.60;69.10
48686;DHT22;34485;51.536;3.816;2023-04-25T12:41:50;13.50;75.60
48686;DHT22;34485;51.536;3.816;2023-04-25T12:44:16;13.60;72.50
48686;DHT22;34485;51.536;3.816;2023-04-25T12:46:42;13.60;64.90
48686;DHT22;34485;51.536;3.816;2023-04-25T12:49:08;13.50;82.70
48686;DHT22;34485;51.536;3.816;2023-04-25T12:51:35;13.60;77.30
48686;DHT22;34485;51.536;3.816;2023-04-25T12:54:02;13.60;69.30
48686;DHT22;34485;51.536;3.816;2023-04-25T12:56:28;13.60;76.80
48686;DHT22;34485;51.536;3.816;2023-04-25T12:58:54;13.40;68.80
48686;DHT22;34485;51.536;3.816;2023-04-25T13:28:18;13.00;99.90
48686;DHT22;34485;51.536;3.816;2023-04-25T13:30:44;12.20;87.60
48686;DHT22;34485;51.536;3.816;2023-04-25T13:33:10;12.00;82.50
48686;DHT22;34485;51.536;3.816;2023-04-25T13:45:22;11.70;77.70
48686;DHT22;34485;51.536;3.816;2023-04-25T13:47:48;11.30;80.90
48686;DHT22;34485;51.536;3.816;2023-04-25T13:50:13;11.10;82.90
48686;DHT22;34485;51.536;3.816;2023-04-25T13:52:40;10.90;82.10
48686;DHT22;34485;51.536;3.816;2023-04-25T13:55:07;10.90;86.40
48686;DHT22;34485;51.536;3.816;2023-04-25T13:57:34;11.10;87.40
48686;DHT22;34485;51.536;3.816;2023-04-25T13:59:59;11.40;81.30
48686;DHT22;34485;51.536;3.816;2023-04-25T14:02:30;11.50;81.00
48686;DHT22;34485;51.536;3.816;2023-04-25T14:04:55;11.60;82.10
48686;DHT22;34485;51.536;3.816;2023-04-25T14:07:21;11.60;78.50
48686;DHT22;34485;51.536;3.816;2023-04-25T14:12:13;11.90;95.30
48686;DHT22;34485;51.536;3.816;2023-04-25T14:14:38;11.70;74.40
48686;DHT22;34485;51.536;3.816;2023-04-25T14:17:04;11.60;74.50
48686;DHT22;34485;51.536;3.816;2023-04-25T14:19:30;11.60;82.60
48686;DHT22;34485;51.536;3.816;2023-04-25T14:21:59;11.50;77.90
48686;DHT22;34485;51.536;3.816;2023-04-25T14:39:03;11.80;99.90
48686;DHT22;34485;51.536;3.816;2023-04-25T14:41:30;11.60;73.60
48686;DHT22;34485;51.536;3.816;2023-04-25T14:43:56;11.20;71.50
48686;DHT22;34485;51.536;3.816;2023-04-25T14:46:22;11.00;76.20
48686;DHT22;34485;51.536;3.816;2023-04-25T14:48:48;10.90;81.10
48686;DHT22;34485;51.536;3.816;2023-04-25T14:51:14;10.70;82.30
48686;DHT22;34485;51.536;3.816;2023-04-25T14:53:40;10.60;80.70
48686;DHT22;34485;51.536;3.816;2023-04-25T14:56:06;10.50;77.70
48686;DHT22;34485;51.536;3.816;2023-04-25T14:58:32;10.60;83.90
48686;DHT22;34485;51.536;3.816;2023-04-25T15:00:59;10.80;83.70
48686;DHT22;34485;51.536;3.816;2023-04-25T15:03:24;10.70;78.30
48686;DHT22;34485;51.536;3.816;2023-04-25T15:05:50;10.70;80.20
48686;DHT22;34485;51.536;3.816;2023-04-25T15:08:16;10.60;79.40
48686;DHT22;34485;51.536;3.816;2023-04-25T15:10:41;10.40;82.00
48686;DHT22;34485;51.536;3.816;2023-04-25T15:13:07;10.30;82.20
48686;DHT22;34485;51.536;3.816;2023-04-25T15:15:33;10.20;82.00
48686;DHT22;34485;51.536;3.816;2023-04-25T15:17:58;10.20;87.60
48686;DHT22;34485;51.536;3.816;2023-04-25T15:20:25;10.20;87.60
48686;DHT22;34485;51.536;3.816;2023-04-25T15:22:52;10.30;86.90
48686;DHT22;34485;51.536;3.816;2023-04-25T15:25:17;10.60;98.70
48686;DHT22;34485;51.536;3.816;2023-04-25T15:27:43;10.80;95.50
48686;DHT22;34485;51.536;3.816;2023-04-25T15:30:11;10.70;95.40
48686;DHT22;34485;51.536;3.816;2023-04-25T15:32:38;10.60;83.30
48686;DHT22;34485;51.536;3.816;2023-04-25T15:35:05;10.70;86.10
48686;DHT22;34485;51.536;3.816;2023-04-25T15:37:32;10.80;85.20
48686;DHT22;34485;51.536;3.816;2023-04-25T15:42:31;11.00;97.20
48686;DHT22;34485;51.536;3.816;2023-04-25T15:44:57;11.00;95.90
48686;DHT22;34485;51.536;3.816;2023-04-25T15:47:22;10.80;79.30
48686;DHT22;34485;51.536;3.816;2023-04-25T15:49:48;10.80;75.30
48686;DHT22;34485;51.536;3.816;2023-04-25T15:52:14;10.90;78.70
48686;DHT22;34485;51.536;3.816;2023-04-25T15:54:39;11.00;79.70
48686;DHT22;34485;51.536;3.816;2023-04-25T15:57:05;10.90;76.90
48686;DHT22;34485;51.536;3.816;2023-04-25T15:59:32;10.90;75.70
48686;DHT22;34485;51.536;3.816;2023-04-25T16:01:58;10.90;79.00
48686;DHT22;34485;51.536;3.816;2023-04-25T16:04:24;10.80;76.00
48686;DHT22;34485;51.536;3.816;2023-04-25T16:06:49;10.80;79.90
48686;DHT22;34485;51.536;3.816;2023-04-25T16:09:15;10.60;76.40
48686;DHT22;34485;51.536;3.816;2023-04-25T16:11:41;10.40;78.20
48686;DHT22;34485;51.536;3.816;2023-04-25T16:14:07;10.30;84.10
48686;DHT22;34485;51.536;3.816;2023-04-25T16:16:33;10.40;80.80
48686;DHT22;34485;51.536;3.816;2023-04-25T16:18:58;10.40;80.60
48686;DHT22;34485;51.536;3.816;2023-04-25T16:21:24;10.50;80.70
48686;DHT22;34485;51.536;3.816;2023-04-25T16:23:51;10.50;81.50
48686;DHT22;34485;51.536;3.816;2023-04-25T16:26:17;10.80;99.90
48686;DHT22;34485;51.536;3.816;2023-04-25T16:36:00;11.50;99.90
48686;DHT22;34485;51.536;3.816;2023-04-25T16:38:26;11.80;88.90
48686;DHT22;34485;51.536;3.816;2023-04-25T16:40:52;12.00;81.80
48686;DHT22;34485;51.536;3.816;2023-04-25T16:43:18;11.90;82.60
48686;DHT22;34485;51.536;3.816;2023-04-25T16:45:45;11.70;80.60
48686;DHT22;34485;51.536;3.816;2023-04-25T16:48:11;11.50;79.00
48686;DHT22;34485;51.536;3.816;2023-04-25T16:50:37;11.40;82.90
48686;DHT22;34485;51.536;3.816;2023-04-25T16:53:02;11.30;80.80
48686;DHT22;34485;51.536;3.816;2023-04-25T16:55:28;11.30;81.30
48686;DHT22;34485;51.536;3.816;2023-04-25T16:57:53;11.20;78.40
48686;DHT22;34485;51.536;3.816;2023-04-25T17:00:19;11.20;81.30
48686;DHT22;34485;51.536;3.816;2023-04-25T17:02:45;11.10;84.10
48686;DHT22;34485;51.536;3.816;2023-04-25T17:05:11;11.10;86.50
48686;DHT22;34485;51.536;3.816;2023-04-25T17:07:36;11.20;80.50
48686;DHT22;34485;51.536;3.816;2023-04-25T17:10:02;11.00;79.60
48686;DHT22;34485;51.536;3.816;2023-04-25T17:12:28;10.80;75.20
48686;DHT22;34485;51.536;3.816;2023-04-25T17:14:53;10.60;75.40
48686;DHT22;34485;51.536;3.816;2023-04-25T17:17:19;10.40;78.70
48686;DHT22;34485;51.536;3.816;2023-04-25T17:19:45;10.20;76.50
48686;DHT22;34485;51.536;3.816;2023-04-25T17:22:11;10.10;79.00
48686;DHT22;34485;51.536;3.816;2023-04-25T17:24:37;10.00;81.90
48686;DHT22;34485;51.536;3.816;2023-04-25T17:27:04;9.80;79.70
48686;DHT22;34485;51.536;3.816;2023-04-25T17:29:30;9.70;84.00
48686;DHT22;34485;51.536;3.816;2023-04-25T17:31:57;9.60;83.70
48686;DHT22;34485;51.536;3.816;2023-04-25T17:34:22;9.50;83.70
48686;DHT22;34485;51.536;3.816;2023-04-25T17:36:48;9.40;82.40